createdAt,value
2018-11-29T00:00:46.024Z,20.07
2018-11-29T00:03:15.248Z,19.90
2018-11-29T00:05:44.419Z,20.63
2018-11-29T00:08:13.631Z,21.53
2018-11-29T00:10:42.906Z,21.77
2018-11-29T00:13:12.264Z,19.37
2018-11-29T00:15:41.520Z,20.60
2018-11-29T00:18:10.695Z,20.37
2018-11-29T00:20:40.660Z,20.73
2018-11-29T00:23:09.946Z,21.07
2018-11-29T00:25:39.167Z,21.23
2018-11-29T00:28:08.482Z,19.53
2018-11-29T00:30:37.698Z,20.43
2018-11-29T00:33:07.040Z,19.90
2018-11-29T00:35:36.268Z,19.83
2018-11-29T00:38:05.510Z,20.60
2018-11-29T00:40:34.748Z,20.00
2018-11-29T00:43:03.996Z,19.90
2018-11-29T00:45:33.220Z,20.03
2018-11-29T00:48:02.424Z,21.03
2018-11-29T00:50:31.648Z,20.40
2018-11-29T00:53:00.858Z,21.17
2018-11-29T00:55:30.154Z,21.33
2018-11-29T00:57:59.392Z,19.43
2018-11-29T01:00:28.583Z,20.90
2018-11-29T01:02:57.859Z,19.30
2018-11-29T01:05:32.740Z,20.20
2018-11-29T01:08:02.638Z,19.93
2018-11-29T01:10:31.865Z,19.90
2018-11-29T01:13:01.146Z,19.60
2018-11-29T01:15:30.375Z,18.27
2018-11-29T01:17:59.621Z,17.07
2018-11-29T01:20:28.845Z,17.80
2018-11-29T01:22:58.055Z,21.07
2018-11-29T01:25:27.240Z,22.30
2018-11-29T01:27:56.480Z,19.30
2018-11-29T01:30:25.811Z,19.03
2018-11-29T01:32:55.032Z,21.23
2018-11-29T01:35:24.361Z,21.40
2018-11-29T01:37:53.631Z,18.13
2018-11-29T01:40:23.496Z,19.10
2018-11-29T01:42:56.574Z,19.23
2018-11-29T01:45:26.384Z,20.63
2018-11-29T01:47:55.640Z,20.00
2018-11-29T01:50:24.953Z,18.13
2018-11-29T01:52:54.923Z,19.17
2018-11-29T01:55:24.173Z,19.73
2018-11-29T01:57:53.331Z,19.83
2018-11-29T02:00:22.574Z,31.60
2018-11-29T02:02:52.914Z,22.53
2018-11-29T02:05:22.130Z,19.07
2018-11-29T02:07:51.291Z,20.40
2018-11-29T02:10:26.244Z,20.43
2018-11-29T02:12:55.921Z,20.33
2018-11-29T02:15:25.213Z,20.60
2018-11-29T02:17:54.452Z,20.90
2018-11-29T02:20:23.695Z,22.63
2018-11-29T02:22:52.892Z,19.40
2018-11-29T02:25:22.150Z,21.97
2018-11-29T02:27:51.341Z,20.07
2018-11-29T02:30:21.563Z,23.23
2018-11-29T02:32:50.949Z,21.53
2018-11-29T02:35:20.260Z,22.07
2018-11-29T02:37:49.498Z,21.13
2018-11-29T02:40:19.940Z,21.13
2018-11-29T02:42:50.813Z,20.93
2018-11-29T02:45:22.287Z,21.53
2018-11-29T02:47:51.472Z,19.83
2018-11-29T02:50:20.796Z,21.47
2018-11-29T02:52:50.003Z,22.63
2018-11-29T02:55:19.240Z,22.67
2018-11-29T02:57:48.481Z,20.07
2018-11-29T03:00:18.466Z,20.50
2018-11-29T03:02:47.846Z,22.97
2018-11-29T03:05:17.766Z,22.20
2018-11-29T03:07:47.133Z,20.47
2018-11-29T03:10:21.110Z,22.27
2018-11-29T03:12:50.352Z,20.27
2018-11-29T03:15:19.568Z,22.50
2018-11-29T03:17:48.829Z,20.63
2018-11-29T03:20:17.975Z,22.00
2018-11-29T03:22:47.351Z,21.17
2018-11-29T03:25:17.638Z,21.30
2018-11-29T03:27:46.767Z,22.40
2018-11-29T03:30:17.361Z,20.87
2018-11-29T03:32:46.652Z,20.73
2018-11-29T03:35:16.117Z,22.07
2018-11-29T03:37:45.346Z,22.83
2018-11-29T03:40:15.623Z,20.80
2018-11-29T03:42:45.279Z,21.13
2018-11-29T03:45:15.264Z,19.47
2018-11-29T03:47:44.581Z,21.13
2018-11-29T03:50:14.997Z,22.90
2018-11-29T03:52:44.225Z,18.90
2018-11-29T03:55:13.485Z,22.23
2018-11-29T03:57:42.671Z,21.30
2018-11-29T04:00:16.931Z,21.60
2018-11-29T04:02:47.208Z,21.60
2018-11-29T04:05:16.573Z,21.47
2018-11-29T04:07:45.868Z,20.43
2018-11-29T04:10:16.022Z,20.93
2018-11-29T04:12:46.191Z,21.53
2018-11-29T04:15:16.154Z,20.53
2018-11-29T04:17:45.688Z,21.90
2018-11-29T04:20:17.660Z,21.67
2018-11-29T04:22:46.961Z,19.63
2018-11-29T04:25:16.616Z,17.90
2018-11-29T04:27:45.911Z,19.90
2018-11-29T04:30:16.136Z,20.03
2018-11-29T04:32:45.406Z,19.97
2018-11-29T04:35:15.091Z,17.63
2018-11-29T04:37:44.371Z,19.20
2018-11-29T04:40:17.155Z,17.33
2018-11-29T04:42:46.417Z,17.80
2018-11-29T04:45:16.753Z,18.93
2018-11-29T04:47:46.362Z,20.47
2018-11-29T04:50:16.565Z,19.40
2018-11-29T04:52:45.951Z,21.47
2018-11-29T04:55:15.264Z,19.70
2018-11-29T04:57:45.021Z,18.47
2018-11-29T05:00:15.795Z,18.43
2018-11-29T05:02:45.990Z,19.17
2018-11-29T05:05:15.404Z,19.80
2018-11-29T05:07:44.671Z,18.07
2018-11-29T05:10:17.756Z,17.97
2018-11-29T05:12:48.769Z,17.43
2018-11-29T05:15:17.973Z,16.33
2018-11-29T05:17:47.274Z,18.33
2018-11-29T05:20:16.481Z,17.97
2018-11-29T05:22:46.726Z,16.60
2018-11-29T05:25:17.088Z,15.63
2018-11-29T05:27:45.739Z,19.50
2018-11-29T05:30:15.442Z,16.90
2018-11-29T05:32:44.880Z,17.17
2018-11-29T05:35:14.169Z,16.63
2018-11-29T05:37:43.565Z,17.00
2018-11-29T05:40:13.874Z,17.27
2018-11-29T05:42:43.226Z,16.53
2018-11-29T05:45:14.110Z,16.70
2018-11-29T05:47:43.363Z,16.77
2018-11-29T05:50:12.998Z,16.60
2018-11-29T05:52:42.504Z,17.63
2018-11-29T05:55:12.686Z,15.07
2018-11-29T05:57:41.977Z,17.27
2018-11-29T06:00:13.674Z,17.00
2018-11-29T06:02:43.309Z,16.17
2018-11-29T06:05:14.083Z,16.27
2018-11-29T06:07:43.342Z,16.57
2018-11-29T06:10:12.850Z,15.80
2018-11-29T06:12:42.048Z,16.50
2018-11-29T06:15:12.068Z,17.63
2018-11-29T06:17:41.674Z,17.30
2018-11-29T06:20:13.132Z,15.67
2018-11-29T06:22:42.482Z,19.33
2018-11-29T06:25:11.998Z,17.57
2018-11-29T06:27:41.302Z,16.53
2018-11-29T06:30:23.493Z,17.07
2018-11-29T06:32:54.131Z,17.70
2018-11-29T06:35:24.302Z,16.53
2018-11-29T06:37:54.051Z,17.93
2018-11-29T06:40:23.406Z,20.00
2018-11-29T06:42:52.738Z,19.80
2018-11-29T06:45:22.452Z,18.23
2018-11-29T06:47:52.656Z,16.80
2018-11-29T06:50:21.850Z,19.43
2018-11-29T06:52:51.986Z,20.37
2018-11-29T06:55:23.021Z,18.67
2018-11-29T06:57:52.858Z,18.40
2018-11-29T07:00:38.049Z,17.33
2018-11-29T07:03:07.656Z,17.50
2018-11-29T07:05:36.944Z,18.50
2018-11-29T07:08:06.472Z,19.43
2018-11-29T07:10:36.272Z,17.67
2018-11-29T07:13:07.194Z,15.00
2018-11-29T07:15:36.476Z,19.43
2018-11-29T07:18:06.720Z,18.90
2018-11-29T07:20:36.350Z,19.27
2018-11-29T07:23:06.832Z,20.07
2018-11-29T07:25:37.010Z,19.37
2018-11-29T07:28:06.315Z,19.50
2018-11-29T07:30:35.535Z,20.73
2018-11-29T07:33:04.792Z,19.57
2018-11-29T07:35:34.026Z,21.80
2018-11-29T07:38:03.243Z,20.73
2018-11-29T07:40:32.440Z,19.60
2018-11-29T07:43:01.704Z,20.43
2018-11-29T07:45:30.993Z,20.37
2018-11-29T07:48:00.258Z,20.80
2018-11-29T07:50:29.510Z,20.33
2018-11-29T07:52:58.734Z,22.07
2018-11-29T07:55:27.926Z,21.40
2018-11-29T07:57:57.254Z,21.13
2018-11-29T08:00:26.640Z,22.33
2018-11-29T08:02:55.912Z,21.87
2018-11-29T08:05:25.933Z,23.50
2018-11-29T08:07:56.030Z,21.57
2018-11-29T08:10:25.256Z,26.10
2018-11-29T08:12:54.678Z,27.87
2018-11-29T08:15:24.068Z,31.63
2018-11-29T08:17:53.362Z,29.83
2018-11-29T08:20:23.201Z,27.23
2018-11-29T08:22:52.412Z,26.97
2018-11-29T08:25:21.667Z,28.13
2018-11-29T08:27:51.129Z,30.77
2018-11-29T08:30:20.322Z,29.97
2018-11-29T08:32:49.570Z,32.80
2018-11-29T08:35:18.792Z,31.63
2018-11-29T08:37:48.462Z,31.40
2018-11-29T08:40:19.284Z,30.43
2018-11-29T08:42:48.758Z,31.70
2018-11-29T08:45:18.100Z,29.97
2018-11-29T08:47:47.677Z,27.87
2018-11-29T08:50:36.643Z,27.80
2018-11-29T08:53:07.001Z,29.13
2018-11-29T08:55:36.180Z,27.07
2018-11-29T08:58:05.997Z,28.53
2018-11-29T09:00:35.300Z,28.67
2018-11-29T09:03:04.689Z,27.07
2018-11-29T09:05:34.201Z,25.27
2018-11-29T09:08:03.344Z,25.17
2018-11-29T09:10:32.661Z,27.30
2018-11-29T09:13:01.902Z,25.20
2018-11-29T09:15:31.152Z,25.20
2018-11-29T09:18:00.405Z,25.13
2018-11-29T09:20:29.716Z,22.77
2018-11-29T09:22:58.976Z,23.90
2018-11-29T09:25:28.146Z,22.37
2018-11-29T09:27:57.426Z,23.40
2018-11-29T09:30:26.654Z,22.37
2018-11-29T09:32:56.008Z,24.07
2018-11-29T09:35:25.269Z,22.50
2018-11-29T09:37:55.190Z,21.60
2018-11-29T09:40:26.080Z,22.83
2018-11-29T09:42:56.341Z,21.43
2018-11-29T09:45:26.507Z,23.00
2018-11-29T09:47:57.830Z,20.23
2018-11-29T09:50:27.433Z,20.97
2018-11-29T09:52:56.695Z,23.87
2018-11-29T09:55:26.014Z,19.50
2018-11-29T09:57:55.243Z,19.33
2018-11-29T10:00:28.159Z,20.10
2018-11-29T10:03:06.765Z,19.73
2018-11-29T10:05:36.081Z,18.73
2018-11-29T10:08:11.817Z,17.97
2018-11-29T10:10:35.424Z,17.10
2018-11-29T10:13:04.731Z,16.30
2018-11-29T10:15:33.976Z,16.10
2018-11-29T10:18:03.263Z,16.33
2018-11-29T10:20:32.536Z,16.70
2018-11-29T10:23:01.926Z,15.37
2018-11-29T10:25:36.498Z,15.03
2018-11-29T10:28:07.862Z,14.57
2018-11-29T10:30:40.448Z,14.40
2018-11-29T10:33:09.663Z,13.53
2018-11-29T10:35:39.322Z,14.93
2018-11-29T10:38:08.564Z,14.80
2018-11-29T10:40:37.761Z,13.80
2018-11-29T10:43:07.090Z,15.07
2018-11-29T10:45:36.297Z,14.87
2018-11-29T10:48:06.755Z,14.93
2018-11-29T10:50:36.016Z,14.90
2018-11-29T10:53:05.473Z,14.67
2018-11-29T10:55:34.814Z,14.47
2018-11-29T10:58:04.098Z,15.27
2018-11-29T11:00:35.056Z,13.43
2018-11-29T11:03:10.550Z,14.50
2018-11-29T11:05:44.304Z,14.67
2018-11-29T11:08:13.712Z,13.87
2018-11-29T11:10:42.923Z,12.97
2018-11-29T11:13:12.157Z,12.77
2018-11-29T11:15:41.491Z,12.53
2018-11-29T11:18:11.893Z,11.73
2018-11-29T11:20:41.123Z,13.90
2018-11-29T11:23:10.360Z,11.97
2018-11-29T11:25:39.596Z,11.87
2018-11-29T11:28:09.708Z,12.00
2018-11-29T11:30:40.835Z,11.83
2018-11-29T11:33:10.065Z,12.17
2018-11-29T11:35:39.303Z,12.00
2018-11-29T11:38:08.538Z,11.60
2018-11-29T11:40:37.869Z,12.57
2018-11-29T11:43:08.038Z,11.77
2018-11-29T11:45:37.337Z,12.63
2018-11-29T11:48:07.319Z,11.37
2018-11-29T11:50:37.153Z,12.77
2018-11-29T11:53:07.850Z,12.43
2018-11-29T11:55:37.635Z,12.33
2018-11-29T11:58:08.287Z,11.93
2018-11-29T12:00:38.704Z,13.10
2018-11-29T12:03:12.937Z,13.23
2018-11-29T12:05:42.250Z,11.73
2018-11-29T12:08:11.466Z,12.40
2018-11-29T12:10:42.128Z,13.57
2018-11-29T12:13:11.377Z,11.97
2018-11-29T12:15:40.637Z,11.77
2018-11-29T12:18:11.341Z,11.63
2018-11-29T12:20:40.663Z,11.77
2018-11-29T12:23:10.361Z,12.20
2018-11-29T12:25:39.587Z,12.07
2018-11-29T12:28:08.822Z,12.10
2018-11-29T12:30:41.357Z,12.87
2018-11-29T12:33:10.597Z,11.93
2018-11-29T12:35:40.171Z,11.43
2018-11-29T12:38:09.451Z,10.97
2018-11-29T12:40:38.701Z,10.43
2018-11-29T12:43:08.190Z,10.87
2018-11-29T12:45:37.492Z,10.70
2018-11-29T12:48:07.661Z,10.90
2018-11-29T12:50:40.191Z,10.17
2018-11-29T12:53:10.431Z,11.50
2018-11-29T12:55:42.461Z,10.33
2018-11-29T12:58:12.241Z,10.90
2018-11-29T13:00:42.092Z,10.27
2018-11-29T13:03:12.466Z,11.97
2018-11-29T13:05:42.071Z,11.13
2018-11-29T13:08:11.542Z,11.00
2018-11-29T13:10:40.726Z,12.13
2018-11-29T13:13:09.927Z,11.67
2018-11-29T13:15:39.138Z,11.73
2018-11-29T13:18:09.358Z,11.27
2018-11-29T13:20:38.645Z,11.07
2018-11-29T13:23:08.117Z,12.43
2018-11-29T13:25:37.449Z,11.80
2018-11-29T13:28:07.382Z,11.90
2018-11-29T13:30:37.875Z,12.43
2018-11-29T13:33:09.334Z,11.43
2018-11-29T13:35:39.151Z,11.33
2018-11-29T13:38:16.602Z,11.23
2018-11-29T13:40:47.841Z,13.37
2018-11-29T13:43:18.327Z,12.10
2018-11-29T13:45:47.647Z,11.77
2018-11-29T13:48:16.821Z,12.73
2018-11-29T13:50:46.137Z,11.37
2018-11-29T13:53:15.292Z,12.10
2018-11-29T13:55:44.604Z,11.77
2018-11-29T13:58:13.901Z,11.60
2018-11-29T14:00:43.106Z,11.60
2018-11-29T14:03:13.779Z,11.83
2018-11-29T14:05:43.314Z,11.37
2018-11-29T14:08:12.981Z,11.30
2018-11-29T14:10:43.139Z,11.20
2018-11-29T14:13:12.446Z,11.27
2018-11-29T14:15:41.726Z,11.60
2018-11-29T14:18:10.872Z,12.27
2018-11-29T14:20:40.700Z,11.00
2018-11-29T14:23:10.041Z,12.10
2018-11-29T14:25:39.537Z,12.93
2018-11-29T14:28:08.989Z,12.77
2018-11-29T14:30:38.411Z,12.77
2018-11-29T14:33:08.513Z,13.53
2018-11-29T14:35:37.717Z,12.27
2018-11-29T14:38:07.098Z,12.00
2018-11-29T14:40:37.125Z,11.87
2018-11-29T14:43:07.223Z,12.13
2018-11-29T14:45:36.529Z,12.03
2018-11-29T14:48:05.891Z,11.57
2018-11-29T14:50:36.638Z,12.40
2018-11-29T14:53:06.791Z,11.60
2018-11-29T14:55:36.544Z,12.30
2018-11-29T14:58:06.338Z,12.23
2018-11-29T15:00:35.750Z,11.77
2018-11-29T15:03:07.588Z,11.47
2018-11-29T15:05:57.253Z,10.63
2018-11-29T15:08:27.340Z,11.53
2018-11-29T15:10:57.200Z,10.70
2018-11-29T15:13:26.559Z,10.93
2018-11-29T15:15:55.869Z,12.33
2018-11-29T15:18:25.117Z,11.53
2018-11-29T15:20:54.413Z,11.53
2018-11-29T15:23:23.587Z,12.27
2018-11-29T15:25:52.837Z,12.70
2018-11-29T15:28:22.028Z,11.83
2018-11-29T15:30:51.319Z,12.37
2018-11-29T15:33:20.567Z,11.47
2018-11-29T15:35:49.832Z,10.93
2018-11-29T15:38:19.267Z,12.50
2018-11-29T15:40:48.853Z,10.33
2018-11-29T15:43:18.066Z,12.30
2018-11-29T15:45:47.193Z,10.97
2018-11-29T15:48:16.801Z,12.40
2018-11-29T15:50:46.013Z,12.53
2018-11-29T15:53:15.972Z,11.77
2018-11-29T15:55:45.291Z,12.37
2018-11-29T15:58:14.487Z,12.90
2018-11-29T16:00:43.829Z,11.47
2018-11-29T16:03:13.088Z,12.03
2018-11-29T16:05:42.367Z,13.00
2018-11-29T16:08:11.519Z,13.27
2018-11-29T16:10:41.640Z,12.63
2018-11-29T16:13:11.681Z,12.47
2018-11-29T16:15:41.591Z,12.33
2018-11-29T16:18:10.863Z,12.17
2018-11-29T16:20:40.501Z,12.63
2018-11-29T16:23:10.647Z,11.83
2018-11-29T16:25:39.979Z,12.03
2018-11-29T16:28:10.194Z,11.57
2018-11-29T16:30:57.874Z,12.60
2018-11-29T16:33:31.535Z,11.57
2018-11-29T16:36:00.798Z,12.77
2018-11-29T16:38:30.196Z,11.77
2018-11-29T16:40:59.435Z,12.57
2018-11-29T16:43:28.723Z,12.60
2018-11-29T16:45:58.011Z,13.40
2018-11-29T16:48:27.204Z,13.27
2018-11-29T16:50:56.469Z,11.23
2018-11-29T16:53:25.885Z,12.23
2018-11-29T16:55:55.180Z,12.33
2018-11-29T16:58:26.280Z,12.77
2018-11-29T17:00:55.489Z,11.93
2018-11-29T17:03:24.748Z,12.67
2018-11-29T17:05:54.000Z,12.93
2018-11-29T17:08:23.309Z,11.50
2018-11-29T17:10:52.518Z,11.93
2018-11-29T17:13:21.814Z,13.50
2018-11-29T17:15:50.992Z,11.23
2018-11-29T17:18:20.659Z,12.33
2018-11-29T17:20:49.911Z,12.10
2018-11-29T17:23:19.207Z,11.67
2018-11-29T17:26:11.964Z,11.50
2018-11-29T17:28:42.131Z,11.40
2018-11-29T17:31:12.310Z,11.67
2018-11-29T17:33:42.140Z,11.30
2018-11-29T17:36:12.070Z,12.37
2018-11-29T17:38:44.221Z,11.87
2018-11-29T17:41:14.510Z,11.70
2018-11-29T17:43:44.561Z,11.17
2018-11-29T17:46:13.906Z,11.33
2018-11-29T17:48:43.110Z,10.80
2018-11-29T17:51:12.306Z,11.43
2018-11-29T17:53:41.602Z,10.87
2018-11-29T17:56:10.960Z,11.03
2018-11-29T17:58:40.192Z,11.00
2018-11-29T18:01:09.518Z,11.23
2018-11-29T18:03:38.803Z,12.00
2018-11-29T18:06:08.074Z,11.57
2018-11-29T18:08:37.527Z,11.07
2018-11-29T18:11:07.868Z,11.47
2018-11-29T18:13:38.961Z,10.83
2018-11-29T18:16:08.486Z,11.43
2018-11-29T18:18:37.764Z,11.37
2018-11-29T18:21:07.176Z,10.77
2018-11-29T18:23:36.440Z,10.97
2018-11-29T18:26:06.174Z,10.83
2018-11-29T18:28:35.620Z,11.03
2018-11-29T18:31:05.092Z,10.13
2018-11-29T18:33:34.614Z,10.83
2018-11-29T18:36:04.106Z,11.00
2018-11-29T18:38:33.402Z,10.33
2018-11-29T18:41:03.798Z,10.57
2018-11-29T18:43:33.217Z,11.67
2018-11-29T18:46:02.604Z,10.43
2018-11-29T18:48:32.262Z,11.17
2018-11-29T18:51:01.866Z,10.77
2018-11-29T18:53:31.328Z,11.77
2018-11-29T18:56:00.923Z,10.80
2018-11-29T18:58:30.448Z,10.43
2018-11-29T19:01:00.450Z,11.47
2018-11-29T19:03:30.651Z,11.33
2018-11-29T19:06:00.826Z,12.80
2018-11-29T19:08:30.494Z,9.70
2018-11-29T19:11:00.062Z,11.40
2018-11-29T19:13:29.424Z,12.27
2018-11-29T19:15:58.858Z,10.90
2018-11-29T19:18:28.410Z,12.17
2018-11-29T19:20:57.970Z,11.57
2018-11-29T19:23:27.378Z,12.97
2018-11-29T19:25:56.880Z,12.57
2018-11-29T19:28:26.304Z,11.57
2018-11-29T19:30:55.796Z,11.57
2018-11-29T19:33:26.600Z,12.43
2018-11-29T19:35:56.433Z,12.70
2018-11-29T19:38:25.925Z,12.53
2018-11-29T19:40:55.533Z,12.37
2018-11-29T19:43:24.872Z,11.83
2018-11-29T19:46:15.766Z,13.03
2018-11-29T19:48:45.930Z,13.23
2018-11-29T19:51:16.130Z,13.00
2018-11-29T19:53:46.640Z,12.40
2018-11-29T19:56:16.132Z,13.87
2018-11-29T19:58:45.598Z,12.67
2018-11-29T20:01:15.074Z,13.57
2018-11-29T20:03:44.564Z,14.17
2018-11-29T20:06:14.138Z,13.33
2018-11-29T20:08:43.717Z,14.20
2018-11-29T20:11:13.307Z,13.93
2018-11-29T20:13:42.901Z,13.47
2018-11-29T20:16:12.371Z,13.73
2018-11-29T20:18:41.747Z,13.33
2018-11-29T20:21:11.148Z,13.73
2018-11-29T20:23:40.548Z,14.20
2018-11-29T20:26:10.018Z,12.43
2018-11-29T20:28:39.310Z,13.37
2018-11-29T20:31:08.848Z,12.87
2018-11-29T20:33:42.500Z,12.83
2018-11-29T20:36:12.530Z,13.30
2018-11-29T20:38:41.848Z,13.90
2018-11-29T20:41:11.238Z,14.13
2018-11-29T20:43:40.700Z,12.37
2018-11-29T20:46:10.054Z,12.57
2018-11-29T20:48:39.439Z,14.23
2018-11-29T20:51:08.852Z,13.60
2018-11-29T20:53:39.455Z,12.90
2018-11-29T20:56:16.410Z,13.27
2018-11-29T20:58:46.838Z,12.97
2018-11-29T21:01:16.058Z,13.87
2018-11-29T21:03:45.284Z,14.30
2018-11-29T21:06:15.002Z,14.33
2018-11-29T21:08:44.182Z,13.53
2018-11-29T21:11:13.402Z,13.93
2018-11-29T21:13:42.647Z,14.23
2018-11-29T21:16:11.861Z,12.83
2018-11-29T21:18:41.115Z,14.00
2018-11-29T21:21:28.686Z,14.90
2018-11-29T21:23:58.990Z,13.60
2018-11-29T21:26:29.001Z,13.70
2018-11-29T21:28:59.330Z,14.27
2018-11-29T21:31:28.555Z,14.20
2018-11-29T21:33:57.774Z,13.70
2018-11-29T21:36:27.084Z,13.57
2018-11-29T21:38:56.687Z,13.63
2018-11-29T21:41:25.919Z,13.70
2018-11-29T21:43:55.111Z,13.90
2018-11-29T21:46:24.464Z,14.47
2018-11-29T21:48:53.638Z,14.17
2018-11-29T21:51:22.871Z,15.23
2018-11-29T21:53:52.525Z,14.83
2018-11-29T21:56:21.760Z,14.60
2018-11-29T21:58:50.879Z,13.97
2018-11-29T22:01:20.233Z,13.80
2018-11-29T22:03:49.453Z,14.47
2018-11-29T22:06:18.658Z,14.20
2018-11-29T22:08:48.761Z,13.57
2018-11-29T22:11:17.971Z,14.13
2018-11-29T22:13:47.125Z,15.40
2018-11-29T22:16:16.528Z,14.23
2018-11-29T22:18:45.828Z,14.53
2018-11-29T22:21:14.962Z,13.73
2018-11-29T22:23:44.192Z,14.10
2018-11-29T22:26:14.686Z,13.07
2018-11-29T22:28:44.084Z,13.60
2018-11-29T22:31:13.363Z,13.23
2018-11-29T22:33:42.551Z,13.47
2018-11-29T22:36:12.018Z,13.40
2018-11-29T22:38:44.410Z,14.33
2018-11-29T22:41:10.678Z,13.33
2018-11-29T22:43:39.950Z,13.80
2018-11-29T22:46:09.311Z,13.33
2018-11-29T22:48:38.836Z,14.00
2018-11-29T22:51:08.048Z,12.50
2018-11-29T22:53:37.478Z,12.87
2018-11-29T22:56:06.850Z,13.90
2018-11-29T22:58:36.170Z,13.23
2018-11-29T23:01:09.695Z,13.10
2018-11-29T23:03:38.946Z,13.83
2018-11-29T23:06:08.345Z,13.97
2018-11-29T23:08:37.698Z,14.43
2018-11-29T23:11:07.391Z,13.97
2018-11-29T23:13:36.564Z,13.23
2018-11-29T23:16:06.624Z,12.17
2018-11-29T23:18:35.976Z,13.40
2018-11-29T23:21:05.284Z,12.63
2018-11-29T23:23:34.494Z,13.87
2018-11-29T23:26:03.810Z,12.77
2018-11-29T23:28:33.060Z,12.57
2018-11-29T23:31:03.022Z,12.77
2018-11-29T23:33:32.851Z,14.17
2018-11-29T23:36:02.713Z,12.30
2018-11-29T23:38:32.642Z,12.00
2018-11-29T23:41:02.712Z,12.93
2018-11-29T23:43:31.998Z,12.53
2018-11-29T23:46:01.218Z,13.67
2018-11-29T23:48:30.558Z,12.93
2018-11-29T23:50:59.849Z,12.53
2018-11-29T23:53:29.197Z,12.97
2018-11-29T23:55:58.882Z,12.07
2018-11-29T23:58:28.199Z,12.57
